Time;durP1;ratioP1;P1;durP2;ratioP2;P2;SDS_P1;SDS_P2;PMS_P1;PMS_P2;Temp;Humidity;BMP_temperature;BMP_pressure;BME280_temperature;BME280_humidity;BME280_pressure;Samples;Min_cycle;Max_cycle;Signal;HPM_P1;HPM_P2
2022/08/20 00:01:47;;;;;;;30.30;27.23;;;;;;;22.70;100.00;99125.91;5035441;28;20034;-84
2022/08/20 00:04:13;;;;;;;30.50;27.40;;;;;;;22.64;100.00;99140.66;5035119;28;20037;-84
2022/08/20 00:06:39;;;;;;;28.88;25.77;;;;;;;22.64;100.00;99141.50;5035297;28;20396;-84
2022/08/20 00:09:05;;;;;;;30.70;27.58;;;;;;;22.59;100.00;99135.00;5035567;28;20021;-84
2022/08/20 00:11:32;;;;;;;32.30;29.08;;;;;;;22.62;100.00;99148.78;5017027;28;20029;-84
2022/08/20 00:14:01;;;;;;;29.52;26.45;;;;;;;22.52;100.00;99149.91;5017463;28;20033;-84
2022/08/20 00:16:31;;;;;;;30.58;27.60;;;;;;;22.49;100.00;99158.19;5017103;28;20492;-84
2022/08/20 00:19:02;;;;;;;31.00;27.85;;;;;;;22.48;100.00;99165.31;5035124;28;20120;-84
2022/08/20 00:21:28;;;;;;;33.50;30.05;;;;;;;22.44;100.00;99163.16;5016919;28;20040;-84
2022/08/20 00:23:55;;;;;;;30.52;27.58;;;;;;;22.40;100.00;99175.88;5034707;28;20428;-84
2022/08/20 00:26:21;;;;;;;33.25;29.95;;;;;;;22.24;100.00;99152.75;5035052;28;20105;-84
2022/08/20 00:28:47;;;;;;;31.00;27.85;;;;;;;22.30;100.00;99178.66;5034891;28;20057;-84
2022/08/20 00:31:16;;;;;;;31.65;28.05;;;;;;;22.24;100.00;99168.66;5017144;28;20064;-84
2022/08/20 00:33:42;;;;;;;30.65;27.75;;;;;;;22.21;100.00;99169.00;5016735;28;20435;-84
2022/08/20 00:36:09;;;;;;;32.08;28.67;;;;;;;22.25;100.00;99177.47;5016818;28;20469;-84
2022/08/20 00:38:40;;;;;;;32.67;27.88;;;;;;;22.17;100.00;99176.44;5016466;28;20434;-84
2022/08/20 00:41:08;;;;;;;31.98;28.98;;;;;;;22.22;100.00;99180.44;5034653;28;20039;-84
2022/08/20 00:43:43;;;;;;;32.05;28.85;;;;;;;22.24;100.00;99186.41;5036593;28;20405;-84
2022/08/20 00:46:16;;;;;;;35.10;30.38;;;;;;;22.17;100.00;99172.97;5054608;28;20039;-83
2022/08/20 00:48:47;;;;;;;33.00;29.77;;;;;;;22.16;100.00;99173.94;5036205;28;20064;-83
2022/08/20 00:51:23;;;;;;;32.38;29.23;;;;;;;22.03;100.00;99161.06;5036375;28;20060;-83
2022/08/20 00:53:49;;;;;;;34.45;30.90;;;;;;;22.05;100.00;99166.22;5036552;28;20032;-83
2022/08/20 00:56:14;;;;;;;33.22;29.23;;;;;;;21.98;100.00;99158.06;5036441;28;20112;-83
2022/08/20 00:58:43;;;;;;;33.53;30.15;;;;;;;21.93;100.00;99158.53;5053994;28;20029;-83
2022/08/20 01:01:10;;;;;;;36.30;32.60;;;;;;;21.90;100.00;99160.66;5054054;28;20079;-83
2022/08/20 01:03:35;;;;;;;34.90;31.33;;;;;;;21.93;100.00;99166.47;5035809;28;20075;-83
2022/08/20 01:06:01;;;;;;;36.25;32.42;;;;;;;21.91;100.00;99173.78;5054055;28;20419;-83
2022/08/20 01:08:26;;;;;;;34.88;31.15;;;;;;;21.88;100.00;99171.44;5053899;28;20096;-83
2022/08/20 01:11:06;;;;;;;38.28;34.28;;;;;;;21.86;100.00;99165.44;5036118;28;20052;-83
2022/08/20 01:13:34;;;;;;;32.67;29.27;;;;;;;21.85;100.00;99169.06;5053721;28;20071;-83
2022/08/20 01:16:02;;;;;;;35.33;31.75;;;;;;;21.76;100.00;99150.63;5054029;28;20035;-82
2022/08/20 01:18:29;;;;;;;35.97;32.08;;;;;;;21.78;100.00;99162.72;5053795;28;20105;-83
2022/08/20 01:20:58;;;;;;;34.50;31.02;;;;;;;21.83;100.00;99184.31;5053944;28;20045;-83
2022/08/20 01:23:44;;;;;;;32.42;29.13;;;;;;;21.83;100.00;99172.88;5053804;28;20029;-84
2022/08/20 01:26:17;;;;;;;36.17;32.30;;;;;;;21.80;100.00;99170.53;5035808;28;20512;-84
2022/08/20 01:28:48;;;;;;;37.05;31.38;;;;;;;21.75;100.00;99155.09;5053043;28;20033;-84
2022/08/20 01:31:16;;;;;;;35.22;30.75;;;;;;;21.76;100.00;99166.53;5053779;28;20032;-85
2022/08/20 01:33:43;;;;;;;35.03;31.33;;;;;;;21.72;100.00;99163.34;5035434;28;20022;-84
2022/08/20 01:36:10;;;;;;;37.13;33.33;;;;;;;21.73;100.00;99169.47;5053516;28;20116;-84
2022/08/20 01:38:36;;;;;;;34.20;30.70;;;;;;;21.70;100.00;99175.09;5053258;28;20057;-85
2022/08/20 01:41:22;;;;;;;34.60;31.00;;;;;;;21.72;100.00;99181.91;5053300;28;20036;-85
2022/08/20 01:43:52;;;;;;;33.00;29.42;;;;;;;21.66;100.00;99172.75;5035280;28;20392;-85
2022/08/20 01:46:18;;;;;;;34.95;31.15;;;;;;;21.59;100.00;99162.91;5035444;28;20025;-84
2022/08/20 01:48:44;;;;;;;35.72;31.95;;;;;;;21.61;100.00;99174.19;5035174;28;20029;-85
2022/08/20 01:51:17;;;;;;;37.08;31.65;;;;;;;21.61;100.00;99177.66;5035277;28;20040;-85
2022/08/20 01:53:47;;;;;;;36.22;32.40;;;;;;;21.54;100.00;99162.56;5052867;28;20439;-85
2022/08/20 01:56:18;;;;;;;34.03;30.60;;;;;;;21.56;100.00;99166.69;5035207;28;20110;-84
2022/08/20 01:58:49;;;;;;;36.92;33.05;;;;;;;21.51;100.00;99155.72;5052813;28;20396;-84
2022/08/20 02:01:28;;;;;;;37.55;33.47;;;;;;;21.49;100.00;99136.53;5035084;28;20112;-85
2022/08/20 02:03:55;;;;;;;38.97;34.97;;;;;;;21.45;100.00;99124.56;5052454;28;20033;-84
2022/08/20 02:06:24;;;;;;;36.88;32.38;;;;;;;21.53;100.00;99144.97;5034718;28;20056;-85
2022/08/20 02:08:54;;;;;;;39.95;35.85;;;;;;;21.43;100.00;99124.69;5052465;28;20464;-84
2022/08/20 02:11:20;;;;;;;;;;;;;;;21.51;100.00;99134.53;5053348;28;20025;-84
2022/08/20 02:13:48;;;;;;;40.85;36.75;;;;;;;21.48;100.00;99118.94;5052765;28;20386;-83
2022/08/20 02:16:14;;;;;;;38.53;34.35;;;;;;;21.40;100.00;99110.94;5034905;28;20052;-84
2022/08/20 02:18:39;;;;;;;44.80;38.58;;;;;;;21.45;100.00;99127.22;5052618;28;20061;-84
2022/08/20 02:21:05;;;;;;;39.40;35.00;;;;;;;21.40;100.00;99129.47;5052780;28;20021;-84
2022/08/20 02:23:30;;;;;;;40.08;35.60;;;;;;;21.43;100.00;99131.81;5051024;28;20025;-84
2022/08/20 02:25:56;;;;;;;40.03;35.55;;;;;;;21.38;100.00;99119.03;5051043;28;20029;-84
2022/08/20 02:28:22;;;;;;;41.53;37.10;;;;;;;21.46;100.00;99117.44;5052467;28;20035;-84
2022/08/20 02:30:51;;;;;;;42.47;37.63;;;;;;;21.42;100.00;99106.31;5052228;28;20127;-84
2022/08/20 02:33:18;;;;;;;41.80;37.38;;;;;;;21.41;100.00;99105.50;5052569;28;20037;-84
2022/08/20 02:35:47;;;;;;;42.60;37.95;;;;;;;21.28;100.00;99081.19;5052293;28;20095;-85
2022/08/20 02:38:14;;;;;;;45.20;39.75;;;;;;;21.37;100.00;99088.25;5034653;28;20029;-83
2022/08/20 02:40:43;;;;;;;45.60;38.58;;;;;;;21.32;100.00;99084.38;5034295;28;20387;-84
2022/08/20 02:43:09;;;;;;;46.83;39.92;;;;;;;21.25;100.00;99093.91;5052211;28;20033;-84
2022/08/20 02:45:42;;;;;;;43.55;38.80;;;;;;;21.24;100.00;99098.38;5052213;28;20029;-84
2022/08/20 02:48:09;;;;;;;46.05;39.30;;;;;;;21.20;100.00;99104.97;5052351;28;20025;-84
2022/08/20 02:50:35;;;;;;;50.47;41.63;;;;;;;21.16;100.00;99100.94;5034112;28;20362;-84
2022/08/20 02:53:00;;;;;;;45.00;39.97;;;;;;;21.12;100.00;99099.59;5052026;28;20039;-84
2022/08/20 02:55:25;;;;;;;47.72;41.45;;;;;;;21.11;100.00;99101.41;5051948;28;20025;-84
2022/08/20 02:57:54;;;;;;;49.30;41.72;;;;;;;21.00;100.00;99085.75;5051820;28;20036;-84
2022/08/20 03:00:20;;;;;;;45.30;40.40;;;;;;;21.07;100.00;99093.91;5034040;28;20033;-84
2022/08/20 03:02:47;;;;;;;43.38;38.28;;;;;;;21.06;100.00;99089.59;5051851;28;20025;-84
2022/08/20 03:05:13;;;;;;;47.08;41.30;;;;;;;21.09;100.00;99100.72;5034171;28;20025;-85
2022/08/20 03:07:47;;;;;;;51.00;41.42;;;;;;;21.06;100.00;99098.34;5033149;28;20045;-84
2022/08/20 03:10:13;;;;;;;47.65;41.88;;;;;;;21.00;100.00;99084.91;5051878;28;20025;-85
2022/08/20 03:12:39;;;;;;;50.30;42.55;;;;;;;20.95;100.00;99089.84;5051552;28;20042;-84
2022/08/20 03:15:06;;;;;;;49.55;41.67;;;;;;;20.95;100.00;99097.78;5051715;28;20473;-84
2022/08/20 03:17:32;;;;;;;50.80;43.78;;;;;;;20.90;100.00;99092.94;5033942;28;20036;-84
2022/08/20 03:19:57;;;;;;;46.15;41.15;;;;;;;20.86;100.00;99079.16;5033993;28;20025;-85
2022/08/20 03:22:22;;;;;;;53.72;43.20;;;;;;;20.84;100.00;99070.53;5051559;28;20029;-84
2022/08/20 03:24:48;;;;;;;49.65;41.22;;;;;;;20.80;100.00;99057.75;5051394;28;20108;-84
2022/08/20 03:27:13;;;;;;;47.30;40.40;;;;;;;20.80;100.00;99055.94;5033740;28;20036;-85
2022/08/20 03:29:38;;;;;;;46.35;40.90;;;;;;;20.81;100.00;99065.53;5050371;28;20483;-84
2022/08/20 03:32:04;;;;;;;46.53;39.97;;;;;;;20.80;100.00;99063.88;5051791;28;20036;-84
2022/08/20 03:34:29;;;;;;;45.38;40.20;;;;;;;20.78;100.00;99075.63;5051775;28;20024;-84
2022/08/20 03:36:55;;;;;;;46.60;39.40;;;;;;;20.81;100.00;99085.88;5051689;28;20484;-84
2022/08/20 03:39:20;;;;;;;44.13;39.22;;;;;;;20.76;100.00;99085.50;5051586;28;20522;-85
2022/08/20 03:41:46;;;;;;;45.50;40.60;;;;;;;20.85;100.00;99100.47;5033334;28;20121;-87
2022/08/20 03:44:11;;;;;;;45.50;39.25;;;;;;;20.81;100.00;99104.41;5051877;28;20032;-86
2022/08/20 03:46:38;;;;;;;44.10;38.45;;;;;;;20.82;100.00;99117.50;5051147;28;20384;-86
2022/08/20 03:49:04;;;;;;;44.83;38.35;;;;;;;20.81;100.00;99112.34;5033560;28;20075;-84
2022/08/20 03:51:31;;;;;;;43.60;38.92;;;;;;;20.85;100.00;99132.25;5051564;28;20053;-84
2022/08/20 03:53:57;;;;;;;45.38;38.17;;;;;;;20.85;100.00;99125.13;5051208;28;20104;-85
2022/08/20 03:56:23;;;;;;;44.95;38.80;;;;;;;20.87;100.00;99123.19;5033494;28;20480;-85
2022/08/20 03:58:48;;;;;;;48.35;41.47;;;;;;;20.86;100.00;99112.75;5033591;28;20036;-85
2022/08/20 04:01:13;;;;;;;48.40;41.33;;;;;;;20.82;100.00;99117.50;5051389;28;20025;-86
2022/08/20 04:03:40;;;;;;;48.50;42.28;;;;;;;20.75;100.00;99102.38;5050938;28;20029;-86
2022/08/20 04:06:06;;;;;;;42.92;38.25;;;;;;;20.76;100.00;99094.28;5033120;28;20057;-86
2022/08/20 04:08:31;;;;;;;45.40;40.50;;;;;;;20.67;100.00;99080.13;5051188;28;20021;-86
2022/08/20 04:10:58;;;;;;;47.53;41.55;;;;;;;20.85;100.00;99098.66;5032926;28;20032;-84
2022/08/20 04:13:25;;;;;;;44.83;39.70;;;;;;;20.81;100.00;99086.72;5033354;28;20025;-85
2022/08/20 04:15:54;;;;;;;46.75;41.33;;;;;;;20.76;100.00;99077.56;5051003;28;20025;-84
2022/08/20 04:18:21;;;;;;;51.45;41.60;;;;;;;20.72;100.00;99071.72;5051152;28;20025;-84
2022/08/20 04:20:47;;;;;;;46.47;41.63;;;;;;;20.74;100.00;99084.84;5035945;28;20021;-85
2022/08/20 04:23:13;;;;;;;43.20;38.50;;;;;;;20.73;100.00;99080.50;5036783;28;20082;-84
2022/08/20 04:25:40;;;;;;;47.95;41.13;;;;;;;20.73;100.00;99086.66;5036223;28;20029;-85
2022/08/20 04:28:10;;;;;;;46.13;41.35;;;;;;;20.83;100.00;99090.06;5036772;28;20024;-85
2022/08/20 04:30:35;;;;;;;45.78;40.95;;;;;;;20.85;100.00;99087.25;5036764;28;20098;-85
2022/08/20 04:33:01;;;;;;;47.75;42.55;;;;;;;20.82;100.00;99085.75;5036524;28;20024;-84
2022/08/20 04:35:27;;;;;;;52.40;41.78;;;;;;;20.81;100.00;99097.28;5036457;28;20025;-84
2022/08/20 04:38:07;;;;;;;46.55;41.55;;;;;;;20.91;100.00;99118.41;5054229;28;20027;-83
2022/08/20 04:40:53;;;;;;;42.47;37.90;;;;;;;20.86;100.00;99118.88;5036713;28;20124;-83
2022/08/20 04:43:32;;;;;;;41.80;37.40;;;;;;;20.93;100.00;99138.44;5054418;28;20021;-83
2022/08/20 04:46:01;;;;;;;45.92;39.08;;;;;;;21.01;100.00;99144.81;5036258;28;20071;-83
2022/08/20 04:48:27;;;;;;;45.55;40.65;;;;;;;20.95;100.00;99140.97;5036233;28;20033;-84
2022/08/20 04:50:54;;;;;;;44.65;39.00;;;;;;;21.02;100.00;99152.59;5036366;28;20033;-85
2022/08/20 04:53:22;;;;;;;42.53;38.22;;;;;;;21.15;100.00;99171.63;5036552;28;20035;-85
2022/08/20 04:55:49;;;;;;;42.30;37.78;;;;;;;21.17;100.00;99168.81;5036190;28;20037;-84
2022/08/20 04:58:19;;;;;;;46.45;38.33;;;;;;;21.21;100.00;99180.78;5054330;28;20498;-84
2022/08/20 05:00:47;;;;;;;43.55;38.15;;;;;;;21.22;100.00;99185.06;5036061;28;20088;-84
2022/08/20 05:03:14;;;;;;;43.15;38.20;;;;;;;21.22;100.00;99173.66;5053982;28;20357;-86
2022/08/20 05:05:40;;;;;;;41.22;36.72;;;;;;;21.29;100.00;99186.16;5032312;28;20079;-84
2022/08/20 05:08:05;;;;;;;39.90;35.47;;;;;;;21.31;100.00;99164.78;5020993;28;20033;-84
2022/08/20 05:10:30;;;;;;;43.67;37.70;;;;;;;21.33;100.00;99149.63;5024448;28;20025;-83
2022/08/20 05:12:56;;;;;;;45.15;39.72;;;;;;;21.33;100.00;99139.88;5042126;28;20025;-78
2022/08/20 05:15:23;;;;;;;51.83;43.90;;;;;;;21.39;100.00;99151.66;5025649;28;20066;-80
2022/08/20 05:17:54;;;;;;;49.83;44.33;;;;;;;21.33;100.00;99136.38;5041267;28;20022;-79
2022/08/20 05:20:20;;;;;;;46.97;41.30;;;;;;;21.36;100.00;99151.94;5023776;28;20465;-79
2022/08/20 05:22:45;;;;;;;46.78;40.85;;;;;;;21.40;100.00;99155.97;5043066;28;20062;-78
2022/08/20 05:25:11;;;;;;;51.13;43.97;;;;;;;21.45;100.00;99174.91;5041621;28;20401;-79
2022/08/20 05:27:36;;;;;;;48.13;41.58;;;;;;;21.40;100.00;99166.56;5041706;28;20045;-78
2022/08/20 05:30:06;;;;;;;46.17;40.42;;;;;;;21.50;100.00;99175.28;5042353;28;20090;-79
2022/08/20 05:32:32;;;;;;;48.03;40.80;;;;;;;21.52;100.00;99156.56;5041836;28;20384;-79
2022/08/20 05:34:57;;;;;;;47.28;40.78;;;;;;;21.68;100.00;99157.53;5041548;28;20267;-79
2022/08/20 05:37:23;;;;;;;48.13;39.55;;;;;;;21.89;100.00;99167.78;5042959;28;20167;-79
2022/08/20 05:39:48;;;;;;;43.50;38.30;;;;;;;22.02;100.00;99174.50;5041022;28;20052;-79
2022/08/20 05:42:13;;;;;;;41.45;35.75;;;;;;;22.28;100.00;99177.97;5042234;28;20615;-84
2022/08/20 05:44:39;;;;;;;38.38;34.17;;;;;;;22.44;100.00;99169.28;5042214;28;20056;-85
2022/08/20 05:47:05;;;;;;;39.42;35.15;;;;;;;22.44;100.00;99160.50;5041032;28;20380;-85
2022/08/20 05:49:31;;;;;;;46.50;37.13;;;;;;;22.53;100.00;99164.84;5024406;28;20040;-85
2022/08/20 05:51:57;;;;;;;44.85;36.92;;;;;;;22.43;100.00;99149.03;5027391;28;20041;-84
2022/08/20 05:54:22;;;;;;;44.58;36.92;;;;;;;22.47;100.00;99155.69;5012486;28;20061;-85
2022/08/20 05:56:49;;;;;;;44.38;38.42;;;;;;;22.44;100.00;99158.66;5028930;28;20122;-84
2022/08/20 05:59:14;;;;;;;46.60;39.30;;;;;;;22.39;100.00;99166.28;5012734;28;20057;-86
2022/08/20 06:01:41;;;;;;;43.88;37.40;;;;;;;22.31;100.00;99167.06;5013876;28;20231;-86
2022/08/20 06:04:23;;;;;;;43.22;37.17;;;;;;;22.24;100.00;99173.97;5013983;28;20033;-86
2022/08/20 06:06:50;;;;;;;41.10;35.38;;;;;;;22.21;100.00;99181.44;5030242;28;20228;-86
2022/08/20 06:09:18;;;;;;;43.85;38.03;;;;;;;22.06;100.00;99162.59;5030686;28;20025;-86
2022/08/20 06:11:44;;;;;;;39.03;34.72;;;;;;;22.06;100.00;99176.66;5030280;28;20069;-86
2022/08/20 06:14:09;;;;;;;40.35;35.40;;;;;;;22.03;100.00;99161.06;5013724;28;20155;-86
2022/08/20 06:16:35;;;;;;;40.65;34.75;;;;;;;22.06;100.00;99163.41;5013893;28;20021;-86
2022/08/20 06:19:00;;;;;;;39.90;35.45;;;;;;;22.14;100.00;99167.97;5013623;28;20124;-84
2022/08/20 06:21:25;;;;;;;43.78;36.47;;;;;;;22.27;100.00;99175.50;5013778;28;20026;-85
2022/08/20 06:23:51;;;;;;;40.92;32.45;;;;;;;22.26;100.00;99174.66;5014296;28;20397;-85
2022/08/20 06:26:17;;;;;;;40.95;34.75;;;;;;;22.35;100.00;99178.19;5032522;28;20109;-85
2022/08/20 06:28:42;;;;;;;42.33;34.42;;;;;;;22.39;100.00;99167.09;5014849;28;20025;-84
2022/08/20 06:31:08;;;;;;;37.47;32.90;;;;;;;22.45;100.00;99170.09;5032815;28;20104;-84
2022/08/20 06:33:33;;;;;;;39.90;31.73;;;;;;;22.40;100.00;99160.78;5015011;28;20087;-84
2022/08/20 06:35:59;;;;;;;41.92;34.50;;;;;;;22.44;100.00;99168.44;5032230;28;20036;-84
2022/08/20 06:38:24;;;;;;;37.78;31.80;;;;;;;22.44;100.00;99166.63;5010141;28;20072;-84
2022/08/20 06:40:49;;;;;;;46.60;36.00;;;;;;;22.45;100.00;99159.50;4993544;28;20041;-84
2022/08/20 06:43:15;;;;;;;47.50;34.67;;;;;;;22.49;100.00;99166.97;4992887;28;20068;-84
2022/08/20 06:45:40;;;;;;;41.17;35.08;;;;;;;22.47;100.00;99157.53;4993398;28;20049;-85
2022/08/20 06:48:09;;;;;;;39.28;32.10;;;;;;;22.59;100.00;99177.47;4993713;28;20117;-85
2022/08/20 06:50:41;;;;;;;37.35;33.25;;;;;;;22.58;100.00;99178.44;5010010;28;20084;-85
2022/08/20 06:53:15;;;;;;;37.45;32.35;;;;;;;22.60;100.00;99174.66;5010070;28;20034;-85
2022/08/20 06:55:44;;;;;;;40.60;33.97;;;;;;;22.60;100.00;99157.91;4993353;28;20038;-84
2022/08/20 06:58:11;;;;;;;40.15;33.42;;;;;;;22.66;100.00;99165.22;4993480;28;20038;-84
2022/08/20 07:00:39;;;;;;;36.17;32.13;;;;;;;22.81;100.00;99170.75;4993323;28;20064;-85
2022/08/20 07:03:05;;;;;;;35.33;29.98;;;;;;;22.91;100.00;99156.34;4993065;28;20048;-85
2022/08/20 07:05:36;;;;;;;34.70;29.52;;;;;;;22.98;100.00;99166.34;4993295;28;20117;-85
2022/08/20 07:08:03;;;;;;;35.30;30.23;;;;;;;23.01;100.00;99177.47;5006866;28;20137;-87
2022/08/20 07:10:30;;;;;;;38.35;32.85;;;;;;;22.97;100.00;99156.72;4993273;28;20519;-87
2022/08/20 07:12:56;;;;;;;36.50;31.27;;;;;;;23.10;100.00;99170.34;5009597;28;20497;-86
2022/08/20 07:15:24;;;;;;;37.80;31.63;;;;;;;23.06;100.00;99159.22;5016327;28;20077;-86
2022/08/20 07:17:56;;;;;;;39.58;31.88;;;;;;;23.16;100.00;99175.84;5031638;28;20026;-85
2022/08/20 07:20:22;;;;;;;35.50;30.27;;;;;;;23.22;100.00;99174.38;5031855;28;20030;-84
2022/08/20 07:22:47;;;;;;;37.20;31.55;;;;;;;23.22;100.00;99169.06;5031401;28;20030;-86
2022/08/20 07:25:15;;;;;;;36.40;31.63;;;;;;;23.20;100.00;99170.19;5014128;28;20392;-86
2022/08/20 07:27:41;;;;;;;35.25;30.50;;;;;;;23.20;100.00;99171.03;5031939;28;20029;-86
2022/08/20 07:32:53;;;;;;;38.25;32.20;;;;;;;23.16;100.00;99175.00;5031753;28;20047;-84
2022/08/20 07:35:19;;;;;;;37.88;31.73;;;;;;;23.31;100.00;99183.19;5031310;28;20029;-85
2022/08/20 07:37:50;;;;;;;34.30;29.63;;;;;;;23.34;100.00;99180.16;5013824;28;20034;-85
2022/08/20 07:40:34;;;;;;;37.65;30.70;;;;;;;23.52;100.00;99177.38;5014034;28;20026;-86
2022/08/20 07:43:01;;;;;;;39.75;32.30;;;;;;;23.74;100.00;99165.28;5031594;28;20366;-85
2022/08/20 07:45:28;;;;;;;36.17;31.52;;;;;;;24.16;100.00;99167.69;5014191;28;20050;-85
2022/08/20 07:47:54;;;;;;;38.42;31.40;;;;;;;25.04;100.00;99161.34;5031598;28;20385;-85
2022/08/20 07:50:23;;;;;;;38.13;32.42;;;;;;;25.99;97.40;99155.63;5031763;28;20065;-86
2022/08/20 07:52:51;;;;;;;37.88;31.83;;;;;;;26.78;93.05;99164.72;5013812;28;20029;-86
2022/08/20 07:55:16;;;;;;;31.85;28.15;;;;;;;27.34;89.39;99156.91;5035490;28;20108;-84
2022/08/20 07:57:46;;;;;;;33.65;29.40;;;;;;;27.68;87.38;99160.69;5017756;28;20129;-83
2022/08/20 08:00:13;;;;;;;36.63;29.73;;;;;;;27.44;86.79;99174.50;5035278;28;20105;-85
2022/08/20 08:02:38;;;;;;;32.33;27.98;;;;;;;27.01;87.66;99169.06;5017249;28;20445;-84
2022/08/20 08:05:05;;;;;;;34.28;29.48;;;;;;;26.93;87.83;99169.22;5019818;28;20068;-83
2022/08/20 08:07:32;;;;;;;32.03;27.30;;;;;;;27.01;88.21;99177.94;5048798;28;20045;-83
2022/08/20 08:10:00;;;;;;;33.58;29.98;;;;;;;27.26;86.85;99175.78;5025264;28;20496;-83
2022/08/20 08:12:34;;;;;;;30.83;27.20;;;;;;;27.41;85.59;99161.50;5042594;28;20029;-83
2022/08/20 08:15:00;;;;;;;30.60;27.33;;;;;;;27.53;85.44;99168.00;5035255;28;20021;-83
2022/08/20 08:17:27;;;;;;;28.55;25.50;;;;;;;27.75;84.41;99174.16;5053301;28;20094;-84
2022/08/20 08:19:52;;;;;;;28.13;25.15;;;;;;;27.89;83.70;99181.25;5035315;28;20103;-84
2022/08/20 08:22:18;;;;;;;31.65;26.85;;;;;;;28.04;82.63;99184.69;5053660;28;20749;-83
2022/08/20 08:24:46;;;;;;;29.80;25.63;;;;;;;27.93;81.73;99174.50;5035255;28;20028;-83
2022/08/20 08:27:12;;;;;;;28.23;24.50;;;;;;;27.86;82.71;99168.28;5034483;28;20029;-84
2022/08/20 08:29:38;;;;;;;27.35;24.40;;;;;;;27.97;82.81;99185.66;5034791;28;20413;-83
2022/08/20 08:32:04;;;;;;;28.33;25.33;;;;;;;28.09;82.03;99182.25;5034825;28;20041;-81
2022/08/20 08:34:31;;;;;;;28.65;25.65;;;;;;;28.28;81.95;99193.28;5047256;28;20025;-83
2022/08/20 08:36:57;;;;;;;26.85;23.85;;;;;;;28.43;81.63;99191.31;5050284;28;20044;-84
2022/08/20 08:39:23;;;;;;;26.23;23.58;;;;;;;28.60;79.88;99203.38;5052827;28;20420;-83
2022/08/20 08:41:50;;;;;;;27.33;24.35;;;;;;;28.49;79.27;99190.56;5034659;28;20485;-83
2022/08/20 08:44:22;;;;;;;25.77;22.77;;;;;;;28.39;79.78;99198.09;5035159;28;20021;-84
2022/08/20 08:47:01;;;;;;;31.10;26.77;;;;;;;28.12;79.68;99190.91;5034916;28;20425;-85
2022/08/20 08:49:32;;;;;;;26.77;22.52;;;;;;;28.04;81.14;99181.19;5051386;28;20027;-84
2022/08/20 08:52:21;;;;;;;27.65;24.45;;;;;;;28.21;80.03;99177.16;5049881;28;20108;-85
2022/08/20 08:54:51;;;;;;;27.83;25.03;;;;;;;28.40;79.61;99188.22;5050048;28;20032;-83
2022/08/20 08:57:17;;;;;;;29.58;24.33;;;;;;;28.58;79.45;99189.34;5031826;28;20036;-83
2022/08/20 08:59:59;;;;;;;27.33;23.25;;;;;;;28.63;78.48;99182.56;5034633;28;20021;-83
2022/08/20 09:02:27;;;;;;;27.05;24.08;;;;;;;28.72;78.83;99184.88;5050773;28;20029;-83
2022/08/20 09:04:56;;;;;;;36.17;31.88;;;;;;;28.76;78.03;99183.44;5033390;28;20032;-84
2022/08/20 09:07:25;;;;;;;27.75;24.83;;;;;;;28.88;77.86;99186.38;5052291;28;20076;-84
2022/08/20 09:09:51;;;;;;;27.08;24.10;;;;;;;29.07;77.23;99180.28;5034491;28;20024;-83
2022/08/20 09:12:20;;;;;;;26.55;22.23;;;;;;;28.83;76.47;99168.22;5049651;28;20032;-83
2022/08/20 09:14:48;;;;;;;29.70;25.67;;;;;;;28.71;77.17;99185.09;5034218;28;20495;-84
2022/08/20 09:17:15;;;;;;;27.38;24.42;;;;;;;28.30;77.76;99184.00;5052233;28;20438;-84
2022/08/20 09:19:40;;;;;;;25.42;22.80;;;;;;;28.10;79.74;99183.06;5051974;28;20079;-83
2022/08/20 09:22:15;;;;;;;26.65;23.85;;;;;;;27.85;79.93;99167.47;5033990;28;20029;-82
2022/08/20 09:24:41;;;;;;;28.88;24.65;;;;;;;27.74;80.12;99183.22;5050192;28;20524;-83
2022/08/20 09:27:07;;;;;;;25.67;22.95;;;;;;;27.74;80.86;99186.72;5051514;28;20024;-81
2022/08/20 09:29:33;;;;;;;27.70;24.83;;;;;;;27.78;80.75;99179.97;5035133;28;20120;-84
2022/08/20 09:32:10;;;;;;;25.90;22.48;;;;;;;27.89;80.69;99180.44;5035101;28;20115;-82
2022/08/20 09:34:40;;;;;;;26.92;24.13;;;;;;;27.95;79.48;99179.69;5052380;28;20031;-82
2022/08/20 09:37:06;;;;;;;25.92;23.35;;;;;;;28.12;79.97;99182.88;5033371;28;20087;-81
2022/08/20 09:39:32;;;;;;;26.45;23.75;;;;;;;28.25;79.67;99191.81;5051646;28;20028;-78
2022/08/20 09:42:13;;;;;;;26.67;23.38;;;;;;;28.20;79.79;99190.75;5051577;28;20023;-78
2022/08/20 09:44:40;;;;;;;23.33;20.30;;;;;;;28.07;79.62;99189.66;5052202;28;20551;-78
2022/08/20 09:47:05;;;;;;;26.48;23.08;;;;;;;27.87;79.11;99179.81;5051447;28;20029;-77
2022/08/20 09:49:31;;;;;;;25.27;22.75;;;;;;;27.58;80.35;99187.78;5051521;28;20071;-79
2022/08/20 09:52:00;;;;;;;25.30;22.80;;;;;;;27.44;82.18;99199.38;5034941;28;20025;-77
2022/08/20 09:54:28;;;;;;;25.45;22.63;;;;;;;27.40;82.53;99203.47;5053008;28;20021;-80
2022/08/20 09:56:57;;;;;;;26.52;23.83;;;;;;;27.22;82.62;99206.59;5052624;28;20124;-80
2022/08/20 09:59:23;;;;;;;31.08;25.50;;;;;;;26.98;82.57;99194.34;5034050;28;20029;-79
2022/08/20 10:01:48;;;;;;;24.90;21.38;;;;;;;26.92;83.65;99197.75;5030096;28;20080;-79
2022/08/20 10:04:13;;;;;;;24.73;22.10;;;;;;;26.87;83.58;99187.63;5030632;28;20045;-79
2022/08/20 10:06:40;;;;;;;27.83;24.92;;;;;;;27.02;83.57;99195.63;5013758;28;20136;-80
2022/08/20 10:09:06;;;;;;;25.40;22.75;;;;;;;26.87;81.52;99181.47;5030328;28;20064;-80
2022/08/20 10:11:32;;;;;;;22.58;20.00;;;;;;;26.81;81.13;99182.22;5030458;28;20101;-80
2022/08/20 10:13:57;;;;;;;25.65;22.90;;;;;;;26.94;81.34;99192.25;5030325;28;20397;-80
2022/08/20 10:16:23;;;;;;;24.40;21.90;;;;;;;26.95;81.55;99189.38;5012464;28;20041;-80
2022/08/20 10:18:48;;;;;;;28.85;24.10;;;;;;;27.02;82.38;99187.59;5029888;28;20033;-80
2022/08/20 10:21:14;;;;;;;27.30;24.38;;;;;;;27.08;83.00;99202.88;5013628;28;20475;-80
2022/08/20 10:23:40;;;;;;;24.38;21.88;;;;;;;27.16;82.57;99195.81;5029441;28;20029;-80
2022/08/20 10:26:10;;;;;;;25.60;22.20;;;;;;;27.33;81.59;99184.66;5029593;28;20057;-80
2022/08/20 10:28:35;;;;;;;;;;;;;;;27.59;81.55;99200.13;5030680;28;20049;-80
2022/08/20 10:31:03;;;;;;;25.42;22.67;;;;;;;27.61;80.97;99181.22;5030042;28;20365;-81
2022/08/20 10:33:28;;;;;;;24.35;21.75;;;;;;;27.76;81.27;99198.03;5047634;28;20540;-80
2022/08/20 10:35:54;;;;;;;24.45;21.95;;;;;;;27.81;81.05;99190.28;5052259;28;20100;-80
2022/08/20 10:38:19;;;;;;;24.30;21.55;;;;;;;27.81;81.27;99182.25;5052375;28;20057;-80
2022/08/20 10:40:44;;;;;;;24.35;21.75;;;;;;;27.96;79.54;99200.06;5052238;28;20032;-80
2022/08/20 10:43:09;;;;;;;22.67;20.38;;;;;;;27.88;78.14;99179.63;5034259;28;20068;-80
2022/08/20 10:45:35;;;;;;;25.88;20.15;;;;;;;28.03;78.87;99201.78;5052368;28;20021;-80
2022/08/20 10:48:01;;;;;;;24.02;21.55;;;;;;;28.14;77.94;99204.91;5034057;28;20025;-80
2022/08/20 10:50:27;;;;;;;23.38;20.30;;;;;;;28.09;77.03;99202.81;5056507;28;20039;-79
2022/08/20 10:52:52;;;;;;;23.92;21.40;;;;;;;27.94;76.98;99183.34;5071874;28;20508;-79
2022/08/20 10:55:17;;;;;;;26.27;21.08;;;;;;;27.98;77.62;99198.00;5071910;28;20103;-79
2022/08/20 10:57:43;;;;;;;24.65;22.17;;;;;;;27.84;77.27;99183.69;5072215;28;20032;-79
2022/08/20 11:00:11;;;;;;;22.70;20.25;;;;;;;27.91;78.32;99195.28;5071959;28;20416;-79
2022/08/20 11:02:36;;;;;;;21.88;19.80;;;;;;;28.06;79.22;99188.00;5072050;28;20028;-80
2022/08/20 11:05:04;;;;;;;23.27;21.00;;;;;;;28.24;78.26;99197.38;5071864;28;20384;-80
2022/08/20 11:07:33;;;;;;;27.77;21.52;;;;;;;28.22;77.96;99194.88;5071739;28;20156;-80
2022/08/20 11:09:58;;;;;;;23.98;21.55;;;;;;;28.15;78.25;99187.81;5071939;28;20070;-81
2022/08/20 11:12:25;;;;;;;29.70;23.00;;;;;;;28.05;78.72;99183.66;5071940;28;20414;-80
2022/08/20 11:14:51;;;;;;;23.55;20.67;;;;;;;28.07;79.51;99197.69;5072100;28;20031;-79
2022/08/20 11:17:29;;;;;;;22.08;19.77;;;;;;;27.94;80.07;99181.53;5071991;28;20085;-80